createdAt,value
2022-10-11T00:00:28.323Z,9.85
2022-10-11T00:02:30.209Z,8.93
2022-10-11T00:04:31.945Z,10.13
2022-10-11T00:06:33.706Z,9.75
2022-10-11T00:08:35.675Z,9.13
2022-10-11T00:10:37.488Z,9.82
2022-10-11T00:12:39.257Z,9.98
2022-10-11T00:14:41.143Z,10.50
2022-10-11T00:16:42.829Z,9.95
2022-10-11T00:18:44.583Z,12.68
2022-10-11T00:20:46.555Z,14.60
2022-10-11T00:22:48.548Z,13.98
2022-10-11T00:24:50.265Z,13.30
2022-10-11T00:26:52.148Z,13.80
2022-10-11T00:28:53.892Z,13.65
2022-10-11T00:30:55.784Z,12.82
2022-10-11T00:32:58.002Z,11.90
2022-10-11T00:35:00.190Z,12.68
2022-10-11T00:37:01.897Z,12.52
2022-10-11T00:39:04.645Z,12.10
2022-10-11T00:41:06.390Z,11.45
2022-10-11T00:43:20.181Z,11.68
2022-10-11T00:45:28.049Z,11.32
2022-10-11T00:47:29.866Z,10.73
2022-10-11T00:49:38.613Z,11.65
2022-10-11T00:51:55.090Z,10.52
2022-10-11T00:53:56.859Z,11.07
2022-10-11T00:56:13.310Z,10.82
2022-10-11T00:58:15.641Z,11.20
2022-10-11T01:00:17.648Z,11.85
2022-10-11T01:02:20.432Z,11.25
2022-10-11T01:04:22.389Z,11.93
2022-10-11T01:06:24.259Z,12.05
2022-10-11T01:08:27.068Z,11.13
2022-10-11T01:10:29.381Z,11.10
2022-10-11T01:12:31.995Z,11.60
2022-10-11T01:15:12.799Z,10.35
2022-10-11T01:17:20.322Z,12.88
2022-10-11T01:19:49.580Z,11.93
2022-10-11T01:22:29.161Z,13.23
2022-10-11T01:24:43.521Z,12.15
2022-10-11T01:26:56.567Z,12.02
2022-10-11T01:29:16.794Z,15.10
2022-10-11T01:31:41.344Z,17.08
2022-10-11T01:33:54.489Z,15.18
2022-10-11T01:36:06.590Z,15.23
2022-10-11T01:38:18.557Z,14.13
2022-10-11T01:40:27.979Z,13.68
2022-10-11T01:42:30.610Z,14.27
2022-10-11T01:44:34.828Z,13.88
2022-10-11T01:46:37.046Z,14.10
2022-10-11T01:48:56.582Z,14.00
2022-10-11T01:51:03.111Z,13.38
2022-10-11T01:53:35.540Z,12.55
2022-10-11T01:55:51.490Z,12.77
2022-10-11T01:58:13.515Z,12.93
2022-10-11T02:00:24.653Z,12.48
2022-10-11T02:02:50.842Z,12.57
2022-10-11T02:05:10.717Z,13.38
2022-10-11T02:07:18.468Z,13.98
2022-10-11T02:09:46.797Z,14.13
2022-10-11T02:11:48.692Z,14.88
2022-10-11T02:14:13.634Z,14.63
2022-10-11T02:16:22.116Z,14.90
2022-10-11T02:18:27.676Z,14.80
2022-10-11T02:20:32.114Z,15.15
2022-10-11T02:22:37.474Z,15.30
2022-10-11T02:24:42.941Z,14.27
2022-10-11T02:26:49.475Z,14.95
2022-10-11T02:28:56.128Z,14.65
2022-10-11T02:31:00.315Z,15.63
2022-10-11T02:33:05.504Z,16.38
2022-10-11T02:35:08.189Z,15.98
2022-10-11T02:37:36.065Z,14.80
2022-10-11T02:40:11.966Z,15.63
2022-10-11T02:42:27.557Z,13.90
2022-10-11T02:44:37.100Z,15.02
2022-10-11T02:46:40.205Z,14.05
2022-10-11T02:48:41.905Z,14.32
2022-10-11T02:50:44.001Z,13.82
2022-10-11T02:52:45.718Z,14.55
2022-10-11T02:54:47.492Z,17.63
2022-10-11T02:56:49.184Z,18.08
2022-10-11T02:58:51.006Z,16.02
2022-10-11T03:00:52.902Z,17.23
2022-10-11T03:02:54.634Z,17.83
2022-10-11T03:04:56.446Z,20.92
2022-10-11T03:06:58.211Z,19.63
2022-10-11T03:08:59.914Z,19.10
2022-10-11T03:11:01.994Z,15.50
2022-10-11T03:13:04.215Z,18.50
2022-10-11T03:15:06.474Z,17.05
2022-10-11T03:17:34.625Z,16.88
2022-10-11T03:19:30.126Z,14.88
2022-10-11T03:21:31.827Z,16.50
2022-10-11T03:23:33.655Z,14.88
2022-10-11T03:25:35.400Z,16.05
2022-10-11T03:27:37.229Z,16.38
2022-10-11T03:29:38.963Z,16.20
2022-10-11T03:31:40.664Z,15.88
2022-10-11T03:33:42.385Z,16.30
2022-10-11T03:35:45.376Z,14.85
2022-10-11T03:37:47.122Z,16.58
2022-10-11T03:39:48.884Z,17.88
2022-10-11T03:41:50.793Z,17.80
2022-10-11T03:43:52.559Z,17.35
2022-10-11T03:45:54.237Z,19.63
2022-10-11T03:47:56.048Z,18.10
2022-10-11T03:49:58.112Z,16.77
2022-10-11T03:51:59.968Z,18.10
2022-10-11T03:54:01.775Z,17.92
2022-10-11T03:56:08.109Z,16.83
2022-10-11T03:58:10.323Z,16.85
2022-10-11T04:00:12.397Z,16.50
2022-10-11T04:02:14.507Z,16.58
2022-10-11T04:04:16.330Z,16.83
2022-10-11T04:06:18.085Z,16.83
2022-10-11T04:08:20.090Z,17.55
2022-10-11T04:10:22.108Z,20.15
2022-10-11T04:12:23.836Z,19.75
2022-10-11T04:14:26.409Z,19.65
2022-10-11T04:16:28.146Z,20.67
2022-10-11T04:18:29.928Z,21.50
2022-10-11T04:20:31.686Z,27.15
2022-10-11T04:22:33.592Z,22.77
2022-10-11T04:24:35.380Z,23.05
2022-10-11T04:26:37.274Z,28.05
2022-10-11T04:28:39.172Z,28.40
2022-10-11T04:30:41.169Z,34.50
2022-10-11T04:32:43.012Z,31.48
2022-10-11T04:34:44.743Z,26.30
2022-10-11T04:36:49.932Z,28.83
2022-10-11T04:38:51.850Z,26.85
2022-10-11T04:40:53.575Z,27.27
2022-10-11T04:42:55.263Z,27.65
2022-10-11T04:44:57.182Z,28.58
2022-10-11T04:46:59.043Z,29.50
2022-10-11T04:49:00.840Z,29.02
2022-10-11T04:51:02.551Z,29.80
2022-10-11T04:53:04.492Z,28.58
2022-10-11T04:55:06.592Z,22.85
2022-10-11T04:57:08.310Z,23.02
2022-10-11T04:59:10.347Z,22.35
2022-10-11T05:01:12.254Z,19.05
2022-10-11T05:03:13.991Z,16.67
2022-10-11T05:05:15.801Z,16.80
2022-10-11T05:07:17.611Z,16.23
2022-10-11T05:09:19.300Z,16.90
2022-10-11T05:11:21.076Z,16.40
2022-10-11T05:13:23.091Z,15.85
2022-10-11T05:15:24.839Z,17.27
2022-10-11T05:17:26.703Z,17.90
2022-10-11T05:19:28.557Z,17.30
2022-10-11T05:21:31.302Z,16.35
2022-10-11T05:23:34.665Z,16.60
2022-10-11T05:25:36.640Z,17.67
2022-10-11T05:27:38.389Z,16.70
2022-10-11T05:29:40.095Z,16.15
2022-10-11T05:31:42.150Z,16.67
2022-10-11T05:33:44.575Z,17.33
2022-10-11T05:35:46.394Z,16.17
2022-10-11T05:37:48.373Z,15.98
2022-10-11T05:39:50.277Z,17.02
2022-10-11T05:41:52.192Z,16.50
2022-10-11T05:43:54.122Z,17.92
2022-10-11T05:45:56.585Z,18.40
2022-10-11T05:47:58.986Z,17.27
2022-10-11T05:50:00.868Z,17.40
2022-10-11T05:52:02.603Z,17.50
2022-10-11T05:54:04.467Z,17.10
2022-10-11T05:56:18.547Z,19.02
2022-10-11T06:00:22.670Z,16.80
2022-10-11T06:02:24.500Z,16.10
2022-10-11T06:04:26.450Z,16.70
2022-10-11T06:06:28.310Z,16.65
2022-10-11T06:08:30.835Z,15.93
2022-10-11T06:10:33.111Z,16.33
2022-10-11T06:12:34.921Z,16.60
2022-10-11T06:14:36.938Z,15.95
2022-10-11T06:16:38.649Z,16.17
2022-10-11T06:18:40.604Z,16.05
2022-10-11T06:20:42.289Z,15.30
2022-10-11T06:22:44.078Z,15.50
2022-10-11T06:24:45.846Z,15.18
2022-10-11T06:26:49.431Z,14.35
2022-10-11T06:28:51.226Z,14.18
2022-10-11T06:30:53.035Z,14.75
2022-10-11T06:32:54.979Z,14.68
2022-10-11T06:34:57.201Z,14.43
2022-10-11T06:36:59.121Z,13.05
2022-10-11T06:39:01.081Z,13.18
2022-10-11T06:41:24.055Z,12.32
2022-10-11T06:43:25.835Z,12.45
2022-10-11T06:45:27.826Z,12.32
2022-10-11T06:47:29.528Z,11.68
2022-10-11T06:49:31.369Z,10.82
2022-10-11T06:51:33.230Z,11.13
2022-10-11T06:53:34.915Z,11.15
2022-10-11T06:55:36.703Z,10.30
2022-10-11T06:57:38.596Z,10.85
2022-10-11T06:59:40.343Z,10.50
2022-10-11T07:01:42.759Z,10.63
2022-10-11T07:03:45.582Z,10.98
2022-10-11T07:05:47.283Z,9.93
2022-10-11T07:07:48.978Z,9.77
2022-10-11T07:09:50.852Z,9.05
2022-10-11T07:11:52.525Z,9.63
2022-10-11T07:13:56.758Z,9.15
2022-10-11T07:16:02.100Z,9.40
2022-10-11T07:18:04.518Z,9.50
2022-10-11T07:20:07.426Z,8.27
2022-10-11T07:22:09.179Z,10.25
2022-10-11T07:24:10.882Z,9.73
2022-10-11T07:26:12.777Z,9.18
2022-10-11T07:28:14.781Z,7.88
2022-10-11T07:30:16.555Z,7.63
2022-10-11T07:32:18.306Z,7.68
2022-10-11T07:34:20.123Z,8.50
2022-10-11T07:36:23.479Z,9.18
2022-10-11T07:38:25.725Z,7.75
2022-10-11T07:40:27.876Z,7.40
2022-10-11T07:42:29.588Z,6.43
2022-10-11T07:44:31.744Z,6.95
2022-10-11T07:46:33.595Z,6.70
2022-10-11T07:48:36.459Z,6.40
2022-10-11T07:50:38.443Z,7.05
2022-10-11T07:52:40.180Z,6.30
2022-10-11T07:54:41.895Z,6.30
2022-10-11T07:56:43.821Z,5.85
2022-10-11T07:58:50.315Z,5.78
2022-10-11T08:00:54.898Z,5.82
2022-10-11T08:02:56.742Z,5.40
2022-10-11T08:04:58.644Z,5.13
2022-10-11T08:07:00.347Z,4.95
2022-10-11T08:09:02.891Z,5.38
2022-10-11T08:11:05.230Z,5.15
2022-10-11T08:13:07.331Z,5.40
2022-10-11T08:15:09.447Z,7.05
2022-10-11T08:17:11.160Z,5.13
2022-10-11T08:19:12.900Z,5.63
2022-10-11T08:21:16.757Z,6.88
2022-10-11T08:23:20.030Z,4.30
2022-10-11T08:25:21.700Z,10.27
2022-10-11T08:27:23.610Z,4.13
2022-10-11T08:29:25.324Z,4.82
2022-10-11T08:31:35.046Z,4.72
2022-10-11T08:33:36.873Z,3.90
2022-10-11T08:35:38.670Z,4.10
2022-10-11T08:37:40.368Z,3.97
2022-10-11T08:39:42.073Z,3.65
2022-10-11T08:42:17.284Z,4.55
2022-10-11T08:45:12.859Z,3.75
2022-10-11T08:49:19.502Z,3.55
2022-10-11T08:51:27.642Z,3.42
2022-10-11T08:54:06.352Z,3.53
2022-10-11T08:56:13.002Z,3.22
2022-10-11T08:58:20.971Z,3.10
2022-10-11T09:00:24.526Z,3.28
2022-10-11T09:02:55.795Z,2.90
2022-10-11T09:04:56.971Z,2.63
2022-10-11T09:07:19.107Z,2.75
2022-10-11T09:10:14.588Z,2.42
2022-10-11T09:15:11.804Z,2.38
2022-10-11T09:17:24.070Z,6.82
2022-10-11T09:20:01.909Z,7.78
2022-10-11T09:22:45.950Z,3.05
2022-10-11T09:24:47.817Z,2.72
2022-10-11T09:26:57.045Z,2.47
2022-10-11T09:29:17.185Z,2.92
2022-10-11T09:31:19.120Z,2.58
2022-10-11T09:33:34.363Z,2.95
2022-10-11T09:35:41.060Z,2.75
2022-10-11T09:38:04.851Z,2.75
2022-10-11T09:40:22.082Z,2.53
2022-10-11T09:42:24.154Z,2.60
2022-10-11T09:44:29.006Z,2.58
2022-10-11T09:46:57.698Z,2.42
2022-10-11T09:49:03.158Z,2.40
2022-10-11T09:51:25.851Z,2.50
2022-10-11T09:53:57.983Z,2.38
2022-10-11T09:56:05.122Z,3.00
2022-10-11T09:58:33.371Z,2.75
2022-10-11T10:00:35.157Z,2.30
2022-10-11T10:02:45.193Z,2.42
2022-10-11T10:04:58.726Z,2.17
2022-10-11T10:07:11.829Z,2.50
2022-10-11T10:09:26.170Z,2.50
2022-10-11T10:11:36.813Z,2.33
2022-10-11T10:13:43.887Z,2.00
2022-10-11T10:15:48.356Z,2.50
2022-10-11T10:17:51.989Z,2.67
2022-10-11T10:21:57.593Z,2.03
2022-10-11T10:24:05.114Z,2.00
2022-10-11T10:26:26.476Z,1.90
2022-10-11T10:28:28.498Z,2.28
2022-10-11T10:30:35.192Z,2.45
2022-10-11T10:32:48.658Z,2.20
2022-10-11T10:35:13.960Z,1.98
2022-10-11T10:37:25.261Z,2.20
2022-10-11T10:39:42.889Z,2.17
2022-10-11T10:41:45.068Z,2.42
2022-10-11T10:43:53.123Z,2.00
2022-10-11T10:46:20.232Z,2.10
2022-10-11T10:49:02.052Z,1.85
2022-10-11T10:51:10.559Z,2.30
2022-10-11T10:53:12.345Z,2.03
2022-10-11T10:55:34.443Z,1.70
2022-10-11T10:58:08.078Z,2.03
2022-10-11T11:00:21.155Z,1.75
2022-10-11T11:02:50.544Z,2.42
2022-10-11T11:05:06.668Z,2.22
2022-10-11T11:07:22.041Z,1.80
2022-10-11T11:09:55.418Z,2.15
2022-10-11T11:12:22.703Z,3.00
2022-10-11T11:14:58.310Z,2.20
2022-10-11T11:17:06.229Z,1.80
2022-10-11T11:19:44.990Z,2.45
2022-10-11T11:22:20.345Z,1.90
2022-10-11T11:24:28.072Z,1.90
2022-10-11T11:26:44.210Z,1.77
2022-10-11T11:29:03.535Z,2.03
2022-10-11T11:31:11.121Z,2.10
2022-10-11T11:33:27.209Z,1.77
2022-10-11T11:35:43.917Z,1.75
2022-10-11T11:37:48.698Z,2.20
2022-10-11T11:39:54.260Z,2.30
2022-10-11T11:42:01.357Z,1.75
2022-10-11T11:44:25.020Z,1.88
2022-10-11T11:46:41.621Z,1.95
2022-10-11T11:48:44.741Z,1.70
2022-10-11T11:50:57.394Z,1.70
2022-10-11T11:53:12.247Z,1.67
2022-10-11T11:55:31.147Z,1.40
2022-10-11T11:57:49.009Z,1.50
2022-10-11T11:59:53.354Z,1.73
2022-10-11T12:01:55.466Z,1.83
2022-10-11T12:04:03.114Z,1.80
2022-10-11T12:06:13.840Z,1.75
2022-10-11T12:08:28.635Z,2.28
2022-10-11T12:10:38.108Z,2.03
2022-10-11T12:12:39.976Z,1.58
2022-10-11T12:14:42.505Z,1.90
2022-10-11T12:17:16.560Z,1.98
2022-10-11T12:19:20.343Z,1.40
2022-10-11T12:21:34.446Z,1.65
2022-10-11T12:25:43.464Z,1.75
2022-10-11T12:27:51.032Z,2.28
2022-10-11T12:29:52.769Z,1.70
2022-10-11T12:32:00.475Z,1.75
2022-10-11T12:34:02.310Z,1.52
2022-10-11T12:36:31.703Z,2.10
2022-10-11T12:38:36.173Z,1.80
2022-10-11T12:40:40.773Z,1.58
2022-10-11T12:43:14.312Z,1.80
2022-10-11T12:45:18.901Z,2.15
2022-10-11T12:47:40.620Z,1.83
2022-10-11T12:50:03.826Z,1.70
2022-10-11T12:52:17.898Z,1.45
2022-10-11T12:56:54.574Z,1.52
2022-10-11T12:59:05.213Z,1.85
2022-10-11T13:01:10.001Z,1.73
2022-10-11T13:03:35.130Z,1.60
2022-10-11T13:05:45.192Z,1.45
2022-10-11T13:07:48.210Z,1.95
2022-10-11T13:09:53.898Z,1.90
2022-10-11T13:12:09.730Z,1.83
2022-10-11T13:14:23.143Z,1.98
2022-10-11T13:16:28.703Z,2.53
2022-10-11T13:18:30.525Z,2.38
2022-10-11T13:20:37.627Z,2.20
2022-10-11T13:22:42.164Z,2.20
2022-10-11T13:24:44.131Z,2.00
2022-10-11T13:26:49.407Z,1.92
2022-10-11T13:28:51.271Z,2.33
2022-10-11T13:30:56.205Z,2.10
2022-10-11T13:33:00.208Z,1.83
2022-10-11T13:35:04.882Z,2.70
2022-10-11T13:37:12.350Z,2.30
2022-10-11T13:39:31.002Z,2.35
2022-10-11T13:41:33.574Z,2.10
2022-10-11T13:43:36.534Z,2.05
2022-10-11T13:45:38.859Z,2.03
2022-10-11T13:47:40.710Z,2.05
2022-10-11T13:49:48.099Z,1.95
2022-10-11T13:52:02.042Z,2.47
2022-10-11T13:54:13.085Z,1.80
2022-10-11T13:56:19.419Z,1.92
2022-10-11T13:58:30.208Z,1.83
2022-10-11T14:00:35.039Z,1.92
2022-10-11T14:02:37.964Z,1.60
2022-10-11T14:04:41.748Z,1.92
2022-10-11T14:06:49.119Z,2.05
2022-10-11T14:08:56.618Z,4.93
2022-10-11T14:11:05.101Z,3.50
2022-10-11T14:13:29.681Z,3.40
2022-10-11T14:15:40.548Z,1.88
2022-10-11T14:17:44.911Z,2.20
2022-10-11T14:20:07.328Z,6.10
2022-10-11T14:22:18.457Z,2.13
2022-10-11T14:24:21.317Z,1.98
2022-10-11T14:26:24.647Z,1.63
2022-10-11T14:28:26.842Z,2.20
2022-10-11T14:30:29.464Z,2.00
2022-10-11T14:32:34.092Z,2.42
2022-10-11T14:34:35.853Z,1.48
2022-10-11T14:36:37.811Z,2.10
2022-10-11T14:38:39.520Z,1.63
2022-10-11T14:40:41.356Z,1.73
2022-10-11T14:42:43.387Z,1.92
2022-10-11T14:44:45.188Z,1.60
2022-10-11T14:46:48.645Z,2.30
2022-10-11T14:48:55.342Z,1.58
2022-10-11T14:51:03.779Z,1.52
2022-10-11T14:53:07.124Z,1.40
2022-10-11T14:55:08.997Z,2.00
2022-10-11T14:57:12.943Z,1.52
2022-10-11T14:59:17.325Z,1.80
2022-10-11T15:01:19.192Z,1.85
2022-10-11T15:03:20.974Z,1.48
2022-10-11T15:05:29.832Z,1.70
2022-10-11T15:07:34.562Z,1.70
2022-10-11T15:09:36.332Z,1.60
2022-10-11T15:11:38.723Z,2.40
2022-10-11T15:13:40.486Z,2.05
2022-10-11T15:15:42.255Z,2.10
2022-10-11T15:17:44.042Z,1.85
2022-10-11T15:19:45.897Z,2.30
2022-10-11T15:21:48.515Z,2.60
2022-10-11T15:23:51.803Z,2.15
2022-10-11T15:25:53.811Z,2.60
2022-10-11T15:27:56.578Z,3.22
2022-10-11T15:29:58.317Z,4.33
2022-10-11T15:32:00.125Z,28.05
2022-10-11T15:34:01.915Z,25.75
2022-10-11T15:36:04.819Z,47.70
2022-10-11T15:38:06.845Z,25.80
2022-10-11T15:40:22.326Z,16.30
2022-10-11T15:42:24.112Z,11.23
2022-10-11T15:44:26.388Z,7.15
2022-10-11T15:46:28.074Z,16.52
2022-10-11T15:48:30.087Z,23.27
2022-10-11T15:50:34.835Z,20.25
2022-10-11T15:52:36.572Z,14.80
2022-10-11T15:54:38.264Z,12.82
2022-10-11T15:56:40.178Z,13.35
2022-10-11T15:58:42.558Z,38.25
2022-10-11T16:00:46.436Z,19.75
2022-10-11T16:02:48.241Z,14.00
2022-10-11T16:04:50.036Z,16.80
2022-10-11T16:06:51.748Z,17.80
2022-10-11T16:08:53.672Z,17.80
2022-10-11T16:10:55.398Z,23.33
2022-10-11T16:12:57.216Z,17.20
2022-10-11T16:14:59.089Z,17.58
2022-10-11T16:17:03.534Z,17.90
2022-10-11T16:19:05.253Z,17.48
2022-10-11T16:21:13.216Z,16.30
2022-10-11T16:23:15.558Z,15.65
2022-10-11T16:25:18.466Z,12.00
2022-10-11T16:27:20.361Z,8.82
2022-10-11T16:29:22.117Z,8.85
2022-10-11T16:31:23.962Z,9.23
2022-10-11T16:33:26.726Z,8.55
2022-10-11T16:35:32.364Z,10.25
2022-10-11T16:37:35.340Z,13.02
2022-10-11T16:39:37.218Z,15.25
2022-10-11T16:41:39.556Z,18.85
2022-10-11T16:43:41.245Z,21.63
2022-10-11T16:45:43.127Z,20.25
2022-10-11T16:47:44.993Z,18.83
2022-10-11T16:49:46.924Z,17.65
2022-10-11T16:51:49.660Z,15.68
2022-10-11T16:53:52.547Z,14.45
2022-10-11T16:55:54.278Z,7.77
2022-10-11T16:57:56.085Z,7.32
2022-10-11T16:59:58.058Z,6.97
2022-10-11T17:01:59.772Z,5.95
2022-10-11T17:04:01.748Z,6.15
2022-10-11T17:06:04.536Z,6.15
2022-10-11T17:08:06.587Z,6.75
2022-10-11T17:10:08.707Z,6.40
2022-10-11T17:12:12.032Z,5.68
2022-10-11T17:14:14.181Z,8.90
2022-10-11T17:16:17.340Z,13.00
2022-10-11T17:18:19.150Z,19.38
2022-10-11T17:20:20.837Z,22.15
2022-10-11T17:22:22.617Z,26.60
2022-10-11T17:24:24.774Z,29.85
2022-10-11T17:26:27.481Z,32.20
2022-10-11T17:28:31.602Z,33.60
2022-10-11T17:30:33.428Z,33.58
2022-10-11T17:32:35.418Z,35.10
2022-10-11T17:34:37.317Z,34.75
2022-10-11T17:36:40.051Z,35.45
2022-10-11T17:38:41.766Z,37.08
2022-10-11T17:40:43.596Z,35.97
2022-10-11T17:42:45.348Z,29.80
2022-10-11T17:44:47.348Z,28.42
2022-10-11T17:46:49.432Z,25.98
2022-10-11T17:48:53.277Z,26.20
2022-10-11T17:50:55.321Z,25.33
2022-10-11T17:52:57.187Z,25.88
2022-10-11T17:54:58.881Z,27.92
2022-10-11T17:57:00.756Z,31.55
2022-10-11T17:59:02.738Z,29.17
2022-10-11T18:01:07.050Z,30.88
2022-10-11T18:03:09.186Z,32.63
2022-10-11T18:05:10.946Z,33.55
2022-10-11T18:07:12.616Z,33.08
2022-10-11T18:09:17.011Z,33.47
2022-10-11T18:11:20.780Z,36.92
2022-10-11T18:13:22.487Z,33.25
2022-10-11T18:15:24.334Z,33.22
2022-10-11T18:17:26.091Z,38.53
2022-10-11T18:19:27.878Z,34.85
2022-10-11T18:21:33.901Z,41.67
2022-10-11T18:23:36.711Z,35.42
2022-10-11T18:25:38.434Z,34.75
2022-10-11T18:27:40.148Z,40.97
2022-10-11T18:29:42.023Z,47.45
2022-10-11T18:31:43.748Z,45.60
2022-10-11T18:33:46.467Z,49.95
2022-10-11T18:35:48.293Z,68.82
2022-10-11T18:37:50.694Z,55.88
2022-10-11T18:39:52.547Z,65.20
2022-10-11T18:41:54.330Z,85.78
2022-10-11T18:43:57.404Z,74.90
2022-10-11T18:46:15.167Z,84.45
2022-10-11T18:48:17.018Z,86.25
2022-10-11T18:50:20.174Z,96.97
2022-10-11T18:52:21.911Z,98.95
2022-10-11T18:54:23.710Z,103.88
2022-10-11T18:56:27.161Z,108.65
2022-10-11T18:58:34.630Z,104.70
2022-10-11T19:00:41.167Z,100.72
2022-10-11T19:02:43.266Z,97.03
2022-10-11T19:04:45.053Z,93.88
2022-10-11T19:06:48.851Z,97.45
2022-10-11T19:08:54.017Z,104.63
2022-10-11T19:10:55.706Z,103.07
2022-10-11T19:12:57.566Z,107.82
2022-10-11T19:14:59.275Z,114.43
2022-10-11T19:17:00.962Z,107.72
2022-10-11T19:19:02.838Z,108.90
2022-10-11T19:21:07.496Z,107.18
2022-10-11T19:23:09.582Z,106.95
2022-10-11T19:25:11.568Z,108.32
2022-10-11T19:27:13.264Z,107.97
2022-10-11T19:29:18.056Z,108.22
2022-10-11T19:31:21.077Z,108.60
2022-10-11T19:33:22.777Z,106.57
2022-10-11T19:35:24.500Z,92.95
2022-10-11T19:37:26.384Z,94.50
2022-10-11T19:39:28.851Z,97.35
2022-10-11T19:41:30.551Z,90.65
2022-10-11T19:43:32.911Z,100.82
2022-10-11T19:45:35.608Z,103.03
2022-10-11T19:47:37.301Z,103.70
2022-10-11T19:49:39.508Z,118.90
2022-10-11T19:51:41.589Z,111.72
2022-10-11T19:53:43.790Z,114.68
2022-10-11T19:55:46.553Z,114.82
2022-10-11T19:57:48.456Z,114.55
2022-10-11T19:59:50.141Z,113.78
2022-10-11T20:01:53.280Z,115.32
2022-10-11T20:04:00.653Z,113.22
2022-10-11T20:06:04.118Z,111.63
2022-10-11T20:08:05.858Z,106.90
2022-10-11T20:10:07.806Z,109.90
2022-10-11T20:12:09.491Z,108.93
2022-10-11T20:14:11.534Z,109.93
2022-10-11T20:16:18.333Z,106.28
2022-10-11T20:18:20.009Z,107.10
2022-10-11T20:20:21.954Z,110.25
2022-10-11T20:22:23.622Z,102.38
2022-10-11T20:24:25.407Z,110.45
2022-10-11T20:26:29.205Z,101.63
2022-10-11T20:28:32.369Z,104.50
2022-10-11T20:30:34.118Z,105.75
2022-10-11T20:32:36.114Z,105.00
2022-10-11T20:34:37.783Z,101.55
2022-10-11T20:36:39.495Z,101.68
2022-10-11T20:38:43.583Z,104.68
2022-10-11T20:40:45.261Z,96.78
2022-10-11T20:42:46.966Z,99.95
2022-10-11T20:44:48.954Z,98.78
2022-10-11T20:46:50.645Z,97.03
2022-10-11T20:49:00.445Z,88.03
2022-10-11T20:51:03.846Z,87.47
2022-10-11T20:53:05.585Z,90.80
2022-10-11T20:55:07.622Z,85.75
2022-10-11T20:57:09.606Z,87.18
2022-10-11T20:59:11.329Z,91.55
2022-10-11T21:01:18.149Z,90.38
2022-10-11T21:03:20.470Z,84.13
2022-10-11T21:05:22.179Z,70.85
2022-10-11T21:07:23.908Z,70.03
2022-10-11T21:09:26.056Z,75.40
2022-10-11T21:11:29.873Z,70.03
2022-10-11T21:13:31.858Z,70.82
2022-10-11T21:15:34.040Z,75.45
2022-10-11T21:17:35.719Z,75.72
2022-10-11T21:19:37.403Z,74.70
2022-10-11T21:21:39.248Z,70.32
2022-10-11T21:23:41.880Z,62.70
2022-10-11T21:25:43.622Z,59.03
2022-10-11T21:27:45.428Z,58.25
2022-10-11T21:29:47.101Z,57.78
2022-10-11T21:31:48.867Z,61.08
2022-10-11T21:33:51.194Z,68.72
2022-10-11T21:35:52.879Z,67.45
2022-10-11T21:37:56.151Z,63.25
2022-10-11T21:39:58.224Z,63.42
2022-10-11T21:41:59.941Z,62.63
2022-10-11T21:44:01.687Z,63.05
2022-10-11T21:46:16.321Z,60.38
2022-10-11T21:48:18.022Z,56.85
2022-10-11T21:50:19.743Z,55.80
2022-10-11T21:52:22.129Z,52.28
2022-10-11T21:54:23.843Z,48.60
2022-10-11T21:56:26.002Z,51.50
2022-10-11T21:58:28.929Z,51.70
2022-10-11T22:00:30.601Z,50.22
2022-10-11T22:02:32.502Z,46.83
2022-10-11T22:04:34.968Z,49.00
2022-10-11T22:06:37.802Z,47.53
2022-10-11T22:08:40.020Z,45.73
2022-10-11T22:10:51.841Z,46.92
2022-10-11T22:12:53.555Z,46.35
2022-10-11T22:14:55.281Z,43.95
2022-10-11T22:16:57.398Z,40.03
2022-10-11T22:18:59.375Z,37.92
2022-10-11T22:21:13.163Z,37.35
2022-10-11T22:23:15.229Z,36.70
2022-10-11T22:25:16.951Z,36.63
2022-10-11T22:27:18.697Z,34.28
2022-10-11T22:29:20.451Z,35.28
2022-10-11T22:31:23.180Z,38.05
2022-10-11T22:33:25.030Z,35.95
2022-10-11T22:35:26.919Z,34.58
2022-10-11T22:37:28.744Z,34.30
2022-10-11T22:39:30.525Z,30.17
2022-10-11T22:41:32.228Z,30.63
2022-10-11T22:43:34.514Z,29.92
2022-10-11T22:45:36.238Z,30.42
2022-10-11T22:47:38.690Z,28.92
2022-10-11T22:49:40.614Z,29.85
2022-10-11T22:51:42.302Z,28.52
2022-10-11T22:53:44.019Z,28.77
2022-10-11T22:55:45.727Z,25.98
2022-10-11T22:57:47.452Z,26.40
2022-10-11T22:59:49.159Z,25.92
2022-10-11T23:01:50.850Z,23.65
2022-10-11T23:03:53.107Z,23.50
2022-10-11T23:05:58.470Z,20.33
2022-10-11T23:08:00.255Z,19.65
2022-10-11T23:10:02.037Z,22.67
2022-10-11T23:12:03.971Z,19.33
2022-10-11T23:14:05.782Z,19.52
2022-10-11T23:16:09.553Z,18.30
2022-10-11T23:18:11.561Z,16.77
2022-10-11T23:20:13.432Z,13.15
2022-10-11T23:22:15.533Z,11.85
2022-10-11T23:24:17.197Z,13.48
2022-10-11T23:26:19.273Z,12.77
2022-10-11T23:28:20.985Z,12.27
2022-10-11T23:30:22.797Z,12.60
2022-10-11T23:32:25.162Z,11.95
2022-10-11T23:34:26.889Z,11.15
2022-10-11T23:36:28.741Z,11.48
2022-10-11T23:38:30.710Z,10.60
2022-10-11T23:40:32.402Z,10.90
2022-10-11T23:42:34.291Z,11.05
2022-10-11T23:44:35.970Z,10.68
2022-10-11T23:46:37.664Z,11.38
2022-10-11T23:48:39.719Z,12.65
2022-10-11T23:50:42.443Z,11.23
2022-10-11T23:52:44.142Z,11.38
2022-10-11T23:54:45.993Z,10.73
2022-10-11T23:56:47.669Z,10.00
2022-10-11T23:58:49.397Z,10.65
